x

Boston 16 Nm East Of Boston, Ma (44013) Wave Buoy

8:50 - Tue 24th May 2016 All times are EDT. -4 hours from GMT.

  • Sig Wave height 3.3ft
  • Swell Direction
  • Peak Period 8s
  • Average Period 5s
  • Wind
    9mph, 11mph gusts
  • Sea Temp 54°f
  • Ar Temp 52°f
  • Sea Pressure 1013.5mb
  • Boston 16 Nm East Of Boston, Ma
  • Boston 16 Nm East Of Boston, Ma

More Historic Weather Station data

Upgrade to MSW Pro to gain access to the past 30 days of data for over 8000 Wavebouys and Weather Stations around the globe.

Join Pro

Comparision Forecast

View Surf forecast
   
Ter 05/24 8:50 3.5ft 8s 5s 9 11 mph 1013.5mb 54f 52f
7:50 3ft 9s 5s 9 11 mph 1013.6mb 54f 52f
6:50 3.5ft 9s  -  13 16 mph 1013.2mb 54f 52f
5:50 3.5ft 9s 5s 13 16 mph 1012.9mb 54f 52f
4:50 3.5ft 10s 5s 16 18 mph 1012.4mb 55f 52f
3:50 3.5ft 9s 5s 16 18 mph 1012.5mb 55f 52f
2:50 3.5ft 5s 5s 16 18 mph 1012.5mb 54f 52f
1:50 3.5ft 5s 5s 16 18 mph 1012.4mb 54f 52f
12:50 4ft 5s 5s 16 18 mph 1012.6mb 54f 51f
11:50 3.5ft 10s 5s 16 18 mph 1012.6mb 54f 51f
10:50 3.5ft 8s 5s 16 18 mph 1012.5mb 54f 51f
9:50 4ft 10s 5s 13 18 mph 1012.5mb 54f 51f
8:50 4ft 10s 5s 13 16 mph 1012.8mb 54f 51f
7:50 4ft 10s 5s 16 18 mph 1012.5mb 54f 51f
6:50 4ft 9s 5s 18 20 mph 1012mb 54f 51f
5:50 4ft 10s 5s 13 18 mph 1011.6mb 54f 51f
4:50 4ft 10s 5s 16 20 mph 1012.2mb 54f 52f
3:50 3.5ft 10s 5s 25 29 mph 1011.2mb 55f 53f
2:50 3.5ft 10s 6s 16 18 mph 1011.6mb 55f 55f
1:50 3.5ft 11s 7s 9 11 mph 1011.9mb 55f 55f
12:50 3.5ft 11s 7s 11 13 mph 1012mb 56f 56f
Seg 05/23 11:50 3.5ft 11s 7s 9 11 mph 1012.7mb 56f 55f
10:50 3.5ft 11s 7s  -  mph 1012.9mb 56f 56f
9:50 3.5ft 9s 7s 7 9 mph 1012.4mb 56f 56f
8:50 3.5ft 9s 6s 9 11 mph 1012.3mb 55f 56f
7:50 3.5ft 11s 6s 13 18 mph 1012.2mb 55f 57f
6:50 3.5ft 9s 6s 13 16 mph 1011.8mb 55f 56f
5:50 3.5ft 9s 7s 9 11 mph 1012.1mb 55f 57f
4:50 3.5ft 9s 7s 9 11 mph 1012.2mb 56f 60f
3:50 4ft 9s 7s 4
mph
1012.5mb 59f 60f
2:50 3.5ft 10s 7s 4
mph
1012.7mb 58f 59f
1:50 3.5ft 8s 7s 2
mph
1012.8mb 60f 60f
12:50 4ft 10s 7s 4
mph
1012.9mb 58f 59f
11:50 4ft 10s 7s 2
mph
1013.1mb 57f 58f
10:50 4.5ft 8s 7s 4 7 mph 1013.1mb 56f 57f
9:50 4.5ft 8s 7s 2 4 mph 1013.3mb 55f 55f
8:50 4.5ft 8s 7s 4 7 mph 1012.9mb 55f 55f
7:50 4.5ft 11s 8s 4 7 mph 1012.7mb 55f 54f
6:50 5ft 10s  -  2 4 mph 1012.6mb 54f 54f
5:50 5ft 10s 8s 4 7 mph 1012.3mb 54f 53f
4:50 5ft 9s 8s 7
mph
1011.9mb 54f 53f
3:50 5ft 9s 8s 4 7 mph 1011.4mb 54f 53f
2:50 4.5ft 9s 7s 4 7 mph 1011.4mb 54f 53f
1:50 4.5ft 9s 7s 4 7 mph 1011.5mb 54f 53f
12:50 4.5ft 8s 6s 4 7 mph 1011.4mb 54f 53f
Dom 05/22 11:50 4ft 6s 6s 2 4 mph 1012.2mb 53f 53f
10:50 4ft 9s 6s 4
mph
1011.9mb 53f 53f
9:50 4.5ft 7s 6s 4
mph
1011.6mb 53f 53f
8:50 4.5ft 10s 7s 2 4 mph 1011.2mb 54f 53f
7:50 4ft 10s 6s 7 9 mph 1010.4mb 54f 54f
6:50 3.5ft 7s 6s 4
mph
1011mb 54f 55f
5:50 2.5ft 7s 5s 4 7 mph 1010.4mb 54f 55f
4:50 2ft 8s 4s 7 9 mph 1010.3mb 54f 54f
3:50 1.6ft 8s 4s 11 16 mph 1009.6mb 54f 54f
2:50 1.6ft 9s 4s 11 13 mph 1009.7mb 54f 54f
1:50 1.6ft 9s 4s 13
mph
1009.9mb 53f 54f
12:50 1.3ft 10s 4s 11 16 mph 1009.9mb 53f 54f
11:50 1.3ft 8s 4s 9 11 mph 1010.2mb 53f 54f
10:50 1.6ft 8s 5s 7 9 mph 1010.3mb 53f 54f
9:50 1.6ft 8s 5s 7 9 mph 1009.6mb 53f 53f
8:50 1.3ft 7s 5s 9 11 mph 1009.8mb 53f 53f
7:50 1.3ft 8s 6s 9 11 mph 1009.7mb 53f 53f
6:50 1.3ft 8s 6s 7 9 mph 1009.3mb 53f 53f
5:50 1.3ft 8s 6s 9 11 mph 1009.5mb 53f 53f
4:50 1.3ft 8s 6s 7 9 mph 1009.5mb 53f 53f
3:50 1.3ft 8s 6s 7 9 mph 1010.3mb 53f 53f
2:50 1.3ft 9s 6s 4
mph
1011.1mb 53f 53f
1:50 1.3ft 8s 6s 2 4 mph 1011.3mb 53f 54f
12:50 1.3ft 8s 6s 2 4 mph 1012.3mb 53f 54f
Sáb 05/21 11:50 1.3ft 9s 6s 4 7 mph 1012.7mb 53f 54f
10:50 1.3ft 7s 6s 7 9 mph 1013.1mb 53f 55f
9:50 1.6ft 8s 5s 9 11 mph 1014.3mb 53f 56f
8:50 1.6ft 8s 5s 9 11 mph 1014.7mb 53f 56f
7:50 1.6ft 8s 5s 11
mph
1015.2mb 53f 56f
6:50 1.6ft 8s 5s 9
mph
1015.3mb 53f 56f
5:50 2ft 8s 5s 13
mph
1016mb 53f 58f
4:50 2ft 8s 5s 13 16 mph 1015.8mb 53f 57f
3:50 2ft 9s 4s 13 16 mph 1016.5mb 53f 58f
2:50 2ft 8s 4s 16 18 mph 1017.1mb 53f 59f
1:50 1.6ft 8s 5s 16
mph
1017.7mb 54f 58f
12:50 1.6ft 8s 7s 7 9 mph 1018.7mb 54f 60f
11:50 2ft 8s 7s 11 13 mph 1019.2mb 54f 57f
10:50 1.6ft 8s 7s 9
mph
1019.6mb 55f 56f
9:50 2ft 9s 7s  -  2 mph 1019.6mb 55f 59f
8:50 2ft 8s 7s 4 7 mph 1020.2mb 53f 56f
7:50 2.5ft 8s 7s 7 9 mph 1020.7mb 52f 55f
6:50 2ft 8s 7s 7 9 mph 1020.6mb 52f 55f
5:50 2ft 8s 7s 9 11 mph 1020.5mb 53f 55f
4:50 1.6ft 9s 7s 9 11 mph 1020.2mb 53f 55f
3:50 1.6ft 8s 6s 11
mph
1020.2mb 53f 55f
2:50 2ft 8s 5s 11
mph
1020.5mb 53f 55f
1:50 2ft 8s 5s 11 13 mph 1020.7mb 53f 56f